createdAt,value
2023-05-15T00:01:04.901Z,54.90
2023-05-15T00:03:38.073Z,55.10
2023-05-15T00:06:09.168Z,56.20
2023-05-15T00:08:39.329Z,56.40
2023-05-15T00:11:09.699Z,56.90
2023-05-15T00:13:40.142Z,57.80
2023-05-15T00:16:11.302Z,58.60
2023-05-15T00:18:43.507Z,58.70
2023-05-15T00:21:13.969Z,59.40
2023-05-15T00:23:44.167Z,59.80
2023-05-15T00:26:16.439Z,60.10
2023-05-15T00:28:46.756Z,60.30
2023-05-15T00:31:17.506Z,60.50
2023-05-15T00:33:49.722Z,61.20
2023-05-15T00:36:22.303Z,61.20
2023-05-15T00:38:52.430Z,61.50
2023-05-15T00:41:25.167Z,62.20
2023-05-15T00:43:58.097Z,62.90
2023-05-15T00:46:29.827Z,63.30
2023-05-15T00:49:01.989Z,63.80
2023-05-15T00:51:32.427Z,64.00
2023-05-15T00:54:02.868Z,64.50
2023-05-15T00:56:34.432Z,65.30
2023-05-15T00:59:07.586Z,66.10
2023-05-15T01:01:40.150Z,68.30
2023-05-15T01:04:13.916Z,69.40
2023-05-15T01:06:44.860Z,69.60
2023-05-15T01:09:16.695Z,70.80
2023-05-15T01:11:49.273Z,71.40
2023-05-15T01:14:20.222Z,72.20
2023-05-15T01:16:50.551Z,72.60
2023-05-15T01:19:22.589Z,73.50
2023-05-15T01:22:29.619Z,74.20
2023-05-15T01:25:36.707Z,76.00
2023-05-15T01:28:11.889Z,77.00
2023-05-15T01:30:45.421Z,77.50
2023-05-15T01:33:23.512Z,78.90
2023-05-15T01:36:02.264Z,79.50
2023-05-15T01:38:37.782Z,79.80
2023-05-15T01:41:18.280Z,80.00
2023-05-15T01:43:56.520Z,81.60
2023-05-15T01:46:31.158Z,81.20
2023-05-15T01:49:05.658Z,82.30
2023-05-15T01:51:37.362Z,83.90
2023-05-15T01:54:09.425Z,83.90
2023-05-15T01:56:42.135Z,84.30
2023-05-15T01:59:16.612Z,84.80
2023-05-15T02:01:48.375Z,84.10
2023-05-15T02:04:19.565Z,83.70
2023-05-15T02:06:51.995Z,83.80
2023-05-15T02:09:23.932Z,84.60
2023-05-15T02:11:54.853Z,85.60
2023-05-15T02:14:29.032Z,86.30
2023-05-15T02:16:59.240Z,88.00
2023-05-15T02:19:30.138Z,90.60
2023-05-15T02:22:00.239Z,92.20
2023-05-15T02:24:30.939Z,93.10
2023-05-15T02:27:07.306Z,93.90
2023-05-15T02:29:45.277Z,94.20
2023-05-15T02:32:21.201Z,93.90
2023-05-15T02:35:04.823Z,94.20
2023-05-15T02:37:57.465Z,94.20
2023-05-15T02:40:28.789Z,94.60
2023-05-15T02:43:00.948Z,94.80
2023-05-15T02:45:34.806Z,95.20
2023-05-15T02:48:06.587Z,94.60
2023-05-15T02:50:37.200Z,94.80
2023-05-15T02:53:08.146Z,94.50
2023-05-15T02:55:38.926Z,94.60
2023-05-15T02:58:09.185Z,93.90
2023-05-15T03:00:41.161Z,93.40
2023-05-15T03:03:11.360Z,93.10
2023-05-15T03:05:41.972Z,92.70
2023-05-15T03:08:12.128Z,92.60
2023-05-15T03:10:42.356Z,92.00
2023-05-15T03:13:12.819Z,92.00
2023-05-15T03:15:47.637Z,92.00
2023-05-15T03:18:19.625Z,90.70
2023-05-15T03:20:51.124Z,90.20
2023-05-15T03:23:21.439Z,89.90
2023-05-15T03:25:52.227Z,89.40
2023-05-15T03:28:22.538Z,89.40
2023-05-15T03:30:54.729Z,89.00
2023-05-15T03:33:24.895Z,88.60
2023-05-15T03:35:55.205Z,88.60
2023-05-15T03:38:25.548Z,89.10
2023-05-15T03:40:56.678Z,90.10
2023-05-15T03:43:27.366Z,90.50
2023-05-15T03:45:59.195Z,90.90
2023-05-15T03:48:30.169Z,91.30
2023-05-15T03:51:00.720Z,91.40
2023-05-15T03:53:31.135Z,91.40
2023-05-15T03:56:01.385Z,91.40
2023-05-15T03:58:32.649Z,91.50
2023-05-15T04:01:04.576Z,91.80
2023-05-15T04:03:35.055Z,92.90
2023-05-15T04:06:05.594Z,91.80
2023-05-15T04:08:35.732Z,91.60
2023-05-15T04:11:06.625Z,91.80
2023-05-15T04:13:37.040Z,91.80
2023-05-15T04:16:10.987Z,91.80
2023-05-15T04:18:41.430Z,92.00
2023-05-15T04:21:11.636Z,92.10
2023-05-15T04:23:42.331Z,92.30
2023-05-15T04:26:13.195Z,92.50
2023-05-15T04:28:52.390Z,92.60
2023-05-15T04:31:29.459Z,92.60
2023-05-15T04:34:00.069Z,92.90
2023-05-15T04:36:30.340Z,92.90
2023-05-15T04:39:00.539Z,92.30
2023-05-15T04:41:30.988Z,92.00
2023-05-15T04:44:01.306Z,91.90
2023-05-15T04:46:35.418Z,91.70
2023-05-15T04:49:05.788Z,91.60
2023-05-15T04:51:53.782Z,91.50
2023-05-15T04:54:23.960Z,91.90
2023-05-15T04:56:54.335Z,92.30
2023-05-15T04:59:25.487Z,92.90
2023-05-15T05:01:55.799Z,93.30
2023-05-15T05:04:26.464Z,93.80
2023-05-15T05:06:59.334Z,94.60
2023-05-15T05:09:29.663Z,95.20
2023-05-15T05:12:02.034Z,95.60
2023-05-15T05:14:32.226Z,95.40
2023-05-15T05:17:02.808Z,95.60
2023-05-15T05:19:33.255Z,95.50
2023-05-15T05:22:06.141Z,95.00
2023-05-15T05:24:38.126Z,95.40
2023-05-15T05:27:08.936Z,95.10
2023-05-15T05:29:40.558Z,95.10
2023-05-15T05:32:11.221Z,94.90
2023-05-15T05:34:41.354Z,94.90
2023-05-15T05:37:13.161Z,95.30
2023-05-15T05:39:43.484Z,94.90
2023-05-15T05:42:13.722Z,94.80
2023-05-15T05:44:43.909Z,94.50
2023-05-15T05:47:14.316Z,94.80
2023-05-15T05:49:47.988Z,95.40
2023-05-15T05:52:19.859Z,97.30
2023-05-15T05:54:50.032Z,98.00
2023-05-15T05:57:20.342Z,97.80
2023-05-15T06:02:30.140Z,97.80
2023-05-15T06:05:00.430Z,95.80
2023-05-15T06:07:31.434Z,95.40
2023-05-15T06:10:01.851Z,95.60
2023-05-15T06:12:32.051Z,96.10
2023-05-15T06:15:02.400Z,96.30
2023-05-15T06:17:34.518Z,98.00
2023-05-15T06:20:06.536Z,98.90
2023-05-15T06:22:37.042Z,99.90
2023-05-15T06:25:08.576Z,99.90
2023-05-15T06:27:38.774Z,99.90
2023-05-15T06:30:10.258Z,99.90
2023-05-15T06:32:42.322Z,99.90
2023-05-15T06:35:13.206Z,99.90
2023-05-15T06:37:43.492Z,99.90
2023-05-15T06:40:14.439Z,99.90
2023-05-15T06:42:44.725Z,99.90
2023-05-15T06:45:15.026Z,99.90
2023-05-15T06:47:46.958Z,99.90
2023-05-15T06:50:17.442Z,99.90
2023-05-15T06:52:47.913Z,99.90
2023-05-15T06:55:18.209Z,99.90
2023-05-15T06:57:48.603Z,99.90
2023-05-15T07:00:19.744Z,99.90
2023-05-15T07:02:51.632Z,99.90
2023-05-15T07:05:22.486Z,99.90
2023-05-15T07:07:52.749Z,99.90
2023-05-15T07:10:23.287Z,99.90
2023-05-15T07:12:53.692Z,99.90
2023-05-15T07:15:24.127Z,99.90
2023-05-15T07:17:56.218Z,99.90
2023-05-15T07:20:30.313Z,99.90
2023-05-15T07:23:02.766Z,99.90
2023-05-15T07:25:33.161Z,99.90
2023-05-15T07:28:03.360Z,99.90
2023-05-15T07:30:33.555Z,99.90
2023-05-15T07:33:05.575Z,99.90
2023-05-15T07:35:35.896Z,99.90
2023-05-15T07:38:06.222Z,99.90
2023-05-15T07:40:36.459Z,99.90
2023-05-15T07:43:06.730Z,99.90
2023-05-15T07:45:37.175Z,99.90
2023-05-15T07:48:19.395Z,99.90
2023-05-15T07:50:51.794Z,99.90
2023-05-15T07:53:22.553Z,99.90
2023-05-15T07:55:52.711Z,99.90
2023-05-15T07:58:24.896Z,99.90
2023-05-15T08:00:55.461Z,99.90
2023-05-15T08:03:27.857Z,99.90
2023-05-15T08:05:58.290Z,99.90
2023-05-15T08:08:28.654Z,99.90
2023-05-15T08:10:58.860Z,99.90
2023-05-15T08:13:29.473Z,99.90
2023-05-15T08:15:59.988Z,99.90
2023-05-15T08:18:32.381Z,99.90
2023-05-15T08:21:04.135Z,99.90
2023-05-15T08:23:35.156Z,99.90
2023-05-15T08:26:05.466Z,99.90
2023-05-15T08:28:36.288Z,99.90
2023-05-15T08:31:06.757Z,99.90
2023-05-15T08:33:38.650Z,99.90
2023-05-15T08:36:09.606Z,99.90
2023-05-15T08:38:39.969Z,99.90
2023-05-15T08:43:46.812Z,99.90
2023-05-15T08:46:17.321Z,99.90
2023-05-15T08:48:50.266Z,99.90
2023-05-15T08:51:21.238Z,99.90
2023-05-15T08:53:52.277Z,99.90
2023-05-15T08:56:22.635Z,99.90
2023-05-15T08:58:53.464Z,99.90
2023-05-15T09:01:24.346Z,99.90
2023-05-15T09:03:56.550Z,99.90
2023-05-15T09:06:28.063Z,99.90
2023-05-15T09:09:01.608Z,99.90
2023-05-15T09:11:33.503Z,99.90
2023-05-15T09:14:04.003Z,99.90
2023-05-15T09:16:34.896Z,99.90
2023-05-15T09:19:07.556Z,99.90
2023-05-15T09:21:37.950Z,99.90
2023-05-15T09:24:26.497Z,99.90
2023-05-15T09:27:07.050Z,99.90
2023-05-15T09:29:39.157Z,99.90
2023-05-15T09:32:11.599Z,99.90
2023-05-15T09:34:45.008Z,99.90
2023-05-15T09:37:31.674Z,99.90
2023-05-15T09:40:11.990Z,99.90
2023-05-15T09:42:42.121Z,99.90
2023-05-15T09:45:20.334Z,99.90
2023-05-15T09:47:50.635Z,99.90
2023-05-15T09:50:26.068Z,99.90
2023-05-15T09:52:56.818Z,99.90
2023-05-15T09:55:28.238Z,99.90
2023-05-15T09:58:08.519Z,99.90
2023-05-15T10:00:47.701Z,99.90
2023-05-15T10:03:21.506Z,99.90
2023-05-15T10:06:01.466Z,99.90
2023-05-15T10:08:31.669Z,99.90
2023-05-15T10:11:03.161Z,99.90
2023-05-15T10:13:34.754Z,99.90
2023-05-15T10:16:06.762Z,99.90
2023-05-15T10:18:38.395Z,99.90
2023-05-15T10:21:11.013Z,99.90
2023-05-15T10:23:45.080Z,99.90
2023-05-15T10:26:23.809Z,99.90
2023-05-15T10:28:55.395Z,99.90
2023-05-15T10:31:27.566Z,99.90
2023-05-15T10:33:59.363Z,99.90
2023-05-15T10:36:32.090Z,99.90
2023-05-15T10:39:03.817Z,99.90
2023-05-15T10:41:35.532Z,99.90
2023-05-15T10:44:06.349Z,99.90
2023-05-15T10:46:38.161Z,99.90
2023-05-15T10:49:08.713Z,99.90
2023-05-15T10:51:41.798Z,99.90
2023-05-15T10:54:12.079Z,99.90
2023-05-15T10:56:44.900Z,99.90
2023-05-15T10:59:15.180Z,99.90
2023-05-15T11:01:45.791Z,99.90
2023-05-15T11:04:17.340Z,99.90
2023-05-15T11:06:52.415Z,99.90
2023-05-15T11:09:46.277Z,99.90
2023-05-15T11:12:16.478Z,99.90
2023-05-15T11:15:07.214Z,99.90
2023-05-15T11:17:38.141Z,99.90
2023-05-15T11:20:09.314Z,99.90
2023-05-15T11:22:41.431Z,99.90
2023-05-15T11:25:13.141Z,99.90
2023-05-15T11:27:44.433Z,99.90
2023-05-15T11:30:21.399Z,99.90
2023-05-15T11:32:59.502Z,99.90
2023-05-15T11:35:32.431Z,99.90
2023-05-15T11:38:06.838Z,99.90
2023-05-15T11:40:47.977Z,99.90
2023-05-15T11:43:22.456Z,99.90
2023-05-15T11:45:56.578Z,99.90
2023-05-15T11:48:28.564Z,99.90
2023-05-15T11:50:58.943Z,99.90
2023-05-15T11:53:32.443Z,99.90
2023-05-15T11:56:02.828Z,99.90
2023-05-15T11:58:33.148Z,99.90
2023-05-15T12:01:04.247Z,99.90
2023-05-15T12:03:37.461Z,99.90
2023-05-15T12:06:08.443Z,99.90
2023-05-15T12:08:42.609Z,99.90
2023-05-15T12:11:13.676Z,99.90
2023-05-15T12:13:44.298Z,99.90
2023-05-15T12:16:14.505Z,99.90
2023-05-15T12:18:44.798Z,99.90
2023-05-15T12:21:15.019Z,99.90
2023-05-15T12:26:28.800Z,99.90
2023-05-15T12:34:40.035Z,99.90
2023-05-15T12:37:15.534Z,99.90
2023-05-15T12:39:58.815Z,99.90
2023-05-15T12:42:29.123Z,99.90
2023-05-15T12:44:59.755Z,99.90
2023-05-15T12:47:30.912Z,99.90
2023-05-15T12:50:01.619Z,99.90
2023-05-15T12:52:31.908Z,99.60
2023-05-15T12:55:05.240Z,97.90
2023-05-15T12:57:36.780Z,98.10
2023-05-15T13:00:08.688Z,96.90
2023-05-15T13:02:39.001Z,96.80
2023-05-15T13:05:09.717Z,97.10
2023-05-15T13:07:40.958Z,95.80
2023-05-15T13:10:16.830Z,96.20
2023-05-15T13:12:48.249Z,93.20
2023-05-15T13:15:31.648Z,93.90
2023-05-15T13:18:05.965Z,92.30
2023-05-15T13:20:37.904Z,92.00
2023-05-15T13:23:08.158Z,91.30
2023-05-15T13:25:40.822Z,90.70
2023-05-15T13:28:11.224Z,90.90
2023-05-15T13:30:43.487Z,87.90
2023-05-15T13:33:15.418Z,90.50
2023-05-15T13:35:45.894Z,90.40
2023-05-15T13:38:16.329Z,85.00
2023-05-15T13:40:48.287Z,86.20
2023-05-15T13:43:18.877Z,82.70
2023-05-15T13:45:49.332Z,82.50
2023-05-15T13:48:19.570Z,81.70
2023-05-15T13:50:49.774Z,77.00
2023-05-15T13:53:20.093Z,77.30
2023-05-15T13:55:52.836Z,78.40
2023-05-15T13:58:23.319Z,79.00
2023-05-15T14:00:53.739Z,77.70
2023-05-15T14:03:24.449Z,77.20
2023-05-15T14:05:54.727Z,74.40
2023-05-15T14:08:24.859Z,75.50
2023-05-15T14:10:56.688Z,76.10
2023-05-15T14:13:26.869Z,75.80
2023-05-15T14:15:57.153Z,76.60
2023-05-15T14:18:30.454Z,73.70
2023-05-15T14:21:02.222Z,73.00
2023-05-15T14:23:32.430Z,74.10
2023-05-15T14:26:04.698Z,73.00
2023-05-15T14:28:34.856Z,72.40
2023-05-15T14:31:05.096Z,74.40
2023-05-15T14:33:35.817Z,72.40
2023-05-15T14:36:06.254Z,73.50
2023-05-15T14:38:36.628Z,71.80
2023-05-15T14:41:08.915Z,73.10
2023-05-15T14:43:39.056Z,70.40
2023-05-15T14:46:11.274Z,70.80
2023-05-15T14:48:41.668Z,72.10
2023-05-15T14:51:12.379Z,71.80
2023-05-15T14:53:42.575Z,71.70
2023-05-15T14:56:14.415Z,72.00
2023-05-15T14:58:44.598Z,69.60
2023-05-15T15:01:14.888Z,70.60
2023-05-15T15:03:45.422Z,69.50
2023-05-15T15:06:15.828Z,72.80
2023-05-15T15:08:45.950Z,71.10
2023-05-15T15:11:17.980Z,72.60
2023-05-15T15:13:48.519Z,71.30
2023-05-15T15:16:18.801Z,70.10
2023-05-15T15:18:49.057Z,72.60
2023-05-15T15:21:19.573Z,74.00
2023-05-15T15:23:50.278Z,71.90
2023-05-15T15:26:22.642Z,72.30
2023-05-15T15:28:53.164Z,69.80
2023-05-15T15:31:23.578Z,68.30
2023-05-15T15:33:54.151Z,69.50
2023-05-15T15:36:24.478Z,70.10
2023-05-15T15:38:54.983Z,68.20
2023-05-15T15:41:27.011Z,68.00
2023-05-15T15:43:57.175Z,66.90
2023-05-15T15:46:28.129Z,67.70
2023-05-15T15:48:58.533Z,65.90
2023-05-15T15:51:28.739Z,64.80
2023-05-15T15:53:58.917Z,64.70
2023-05-15T15:56:30.803Z,68.00
2023-05-15T15:59:01.230Z,65.10
2023-05-15T16:01:31.608Z,66.80
2023-05-15T16:04:02.058Z,64.10
2023-05-15T16:06:32.307Z,64.20
2023-05-15T16:09:03.160Z,60.80
2023-05-15T16:11:35.233Z,61.10
2023-05-15T16:14:05.369Z,62.40
2023-05-15T16:16:36.133Z,61.10
2023-05-15T16:19:06.435Z,60.60
2023-05-15T16:21:37.150Z,60.70
2023-05-15T16:24:08.176Z,62.70
2023-05-15T16:26:40.947Z,61.70
2023-05-15T16:29:11.250Z,59.80
2023-05-15T16:31:42.698Z,59.80
2023-05-15T16:34:13.112Z,59.40
2023-05-15T16:36:43.493Z,59.90
2023-05-15T16:39:13.714Z,57.60
2023-05-15T16:41:45.578Z,57.80
2023-05-15T16:44:15.730Z,59.10
2023-05-15T16:46:46.010Z,58.30
2023-05-15T16:49:16.233Z,58.90
2023-05-15T16:51:46.425Z,58.70
2023-05-15T16:54:16.829Z,58.10
2023-05-15T16:56:48.737Z,58.30
2023-05-15T16:59:19.397Z,59.60
2023-05-15T17:01:50.567Z,59.00
2023-05-15T17:04:21.257Z,58.90
2023-05-15T17:06:51.950Z,58.10
2023-05-15T17:09:22.381Z,59.10
2023-05-15T17:11:54.361Z,58.70
2023-05-15T17:14:24.589Z,58.30
2023-05-15T17:16:54.811Z,58.10
2023-05-15T17:19:25.202Z,58.90
2023-05-15T17:21:55.589Z,58.60
2023-05-15T17:24:28.749Z,58.30
2023-05-15T17:27:04.684Z,62.00
2023-05-15T17:29:35.298Z,58.40
2023-05-15T17:32:06.772Z,57.40
2023-05-15T17:34:37.017Z,58.70
2023-05-15T17:37:07.697Z,58.60
2023-05-15T17:39:37.962Z,58.80
2023-05-15T17:42:10.085Z,58.00
2023-05-15T17:44:40.269Z,55.80
2023-05-15T17:47:10.778Z,56.70
2023-05-15T17:49:41.232Z,55.60
2023-05-15T17:52:11.829Z,56.00
2023-05-15T17:54:42.110Z,56.40
2023-05-15T17:57:14.069Z,57.10
2023-05-15T17:59:44.191Z,55.10
2023-05-15T18:02:14.669Z,56.30
2023-05-15T18:04:44.873Z,55.10
2023-05-15T18:07:15.093Z,55.30
2023-05-15T18:09:45.417Z,55.80
2023-05-15T18:12:17.227Z,56.00
2023-05-15T18:14:47.492Z,58.60
2023-05-15T18:17:18.369Z,55.80
2023-05-15T18:19:48.503Z,53.60
2023-05-15T18:22:18.699Z,54.90
2023-05-15T18:24:48.958Z,54.20
2023-05-15T18:27:20.998Z,54.10
2023-05-15T18:29:51.262Z,55.80
2023-05-15T18:32:22.157Z,54.90
2023-05-15T18:34:52.557Z,55.20
2023-05-15T18:37:22.886Z,54.80
2023-05-15T18:39:53.492Z,57.40
2023-05-15T18:42:26.032Z,53.70
2023-05-15T18:44:56.216Z,52.80
2023-05-15T18:47:26.552Z,53.10
2023-05-15T18:49:56.925Z,51.80
2023-05-15T18:52:27.976Z,52.90
2023-05-15T18:54:58.332Z,53.60
2023-05-15T18:57:31.214Z,54.40
2023-05-15T19:00:01.356Z,53.70
2023-05-15T19:02:33.246Z,53.20
2023-05-15T19:05:03.645Z,53.20
2023-05-15T19:07:33.892Z,53.50
2023-05-15T19:10:04.281Z,53.50
2023-05-15T19:12:36.303Z,52.80
2023-05-15T19:15:07.321Z,53.60
2023-05-15T19:17:38.212Z,52.90
2023-05-15T19:20:10.728Z,53.00
2023-05-15T19:22:40.964Z,53.30
2023-05-15T19:25:12.113Z,53.00
2023-05-15T19:27:44.185Z,52.50
2023-05-15T19:30:14.779Z,53.70
2023-05-15T19:32:45.210Z,53.70
2023-05-15T19:35:16.410Z,54.00
2023-05-15T19:37:46.608Z,54.30
2023-05-15T19:40:17.406Z,54.60
2023-05-15T19:42:49.600Z,53.60
2023-05-15T19:45:19.727Z,53.90
2023-05-15T19:47:49.985Z,53.10
2023-05-15T19:50:21.126Z,53.70
2023-05-15T19:52:52.266Z,53.70
2023-05-15T19:55:22.435Z,53.40
2023-05-15T19:57:58.570Z,54.60
2023-05-15T20:00:28.924Z,53.20
2023-05-15T20:02:59.251Z,53.90
2023-05-15T20:05:29.701Z,53.80
2023-05-15T20:08:00.390Z,52.00
2023-05-15T20:10:30.643Z,51.40
2023-05-15T20:13:02.484Z,52.70
2023-05-15T20:15:32.684Z,51.70
2023-05-15T20:18:03.209Z,52.00
2023-05-15T20:20:33.761Z,51.70
2023-05-15T20:23:04.006Z,52.90
2023-05-15T20:25:34.169Z,51.20
2023-05-15T20:28:06.037Z,51.50
2023-05-15T20:30:36.524Z,51.20
2023-05-15T20:33:07.053Z,53.30
2023-05-15T20:35:37.880Z,52.00
2023-05-15T20:38:08.116Z,52.20
2023-05-15T20:40:38.401Z,51.80
2023-05-15T20:43:10.210Z,52.50
2023-05-15T20:45:40.409Z,52.60
2023-05-15T20:48:11.801Z,51.90
2023-05-15T20:50:42.430Z,51.70
2023-05-15T20:53:12.719Z,50.50
2023-05-15T20:55:42.886Z,51.10
2023-05-15T20:58:14.777Z,50.90
2023-05-15T21:00:45.233Z,51.30
2023-05-15T21:03:15.678Z,52.50
2023-05-15T21:05:46.014Z,53.20
2023-05-15T21:08:17.130Z,52.80
2023-05-15T21:10:51.547Z,53.40
2023-05-15T21:13:23.732Z,53.80
2023-05-15T21:15:54.255Z,53.30
2023-05-15T21:18:24.507Z,53.60
2023-05-15T21:20:54.709Z,53.30
2023-05-15T21:23:25.351Z,53.60
2023-05-15T21:25:56.375Z,53.40
2023-05-15T21:28:28.625Z,54.40
2023-05-15T21:31:01.016Z,53.00
2023-05-15T21:33:31.454Z,52.90
2023-05-15T21:36:01.680Z,53.80
2023-05-15T21:38:32.537Z,52.80
2023-05-15T21:41:03.328Z,52.80
2023-05-15T21:43:35.582Z,53.50
2023-05-15T21:46:05.850Z,52.80
2023-05-15T21:48:36.117Z,52.30
2023-05-15T21:51:06.649Z,52.20
2023-05-15T21:53:37.224Z,51.30
2023-05-15T21:56:07.975Z,51.50
2023-05-15T21:58:40.293Z,50.70
2023-05-15T22:01:10.437Z,50.80
2023-05-15T22:03:40.783Z,51.30
2023-05-15T22:06:11.334Z,49.80
2023-05-15T22:08:41.624Z,50.60
2023-05-15T22:11:11.848Z,51.50
2023-05-15T22:13:43.879Z,53.00
2023-05-15T22:16:14.091Z,52.60
2023-05-15T22:18:46.086Z,52.10
2023-05-15T22:21:16.451Z,53.00
2023-05-15T22:23:46.786Z,59.20
2023-05-15T22:26:17.688Z,63.60
2023-05-15T22:28:56.068Z,64.20
2023-05-15T22:31:27.078Z,65.90
2023-05-15T22:33:57.565Z,65.50
2023-05-15T22:36:28.186Z,66.40
2023-05-15T22:38:58.526Z,66.70
2023-05-15T22:41:28.642Z,67.30
2023-05-15T22:44:00.481Z,68.10
2023-05-15T22:46:30.871Z,68.20
2023-05-15T22:49:12.906Z,68.50
2023-05-15T22:51:43.239Z,68.10
2023-05-15T22:54:13.618Z,69.60
2023-05-15T22:56:43.929Z,69.50
2023-05-15T22:59:19.406Z,69.70
2023-05-15T23:01:50.157Z,69.70
2023-05-15T23:04:21.337Z,70.60
2023-05-15T23:06:51.853Z,70.40
2023-05-15T23:09:22.279Z,71.40
2023-05-15T23:11:53.153Z,72.00
2023-05-15T23:14:25.254Z,71.70
2023-05-15T23:16:55.579Z,72.40
2023-05-15T23:19:26.096Z,73.00
2023-05-15T23:21:56.455Z,72.80
2023-05-15T23:24:26.731Z,73.30
2023-05-15T23:26:57.596Z,73.20
2023-05-15T23:29:30.298Z,73.30
2023-05-15T23:32:00.849Z,73.50
2023-05-15T23:34:31.608Z,73.30
2023-05-15T23:37:02.489Z,74.40
2023-05-15T23:39:32.780Z,73.90
2023-05-15T23:42:04.769Z,74.10
2023-05-15T23:44:37.525Z,74.90
2023-05-15T23:47:08.892Z,75.60
2023-05-15T23:49:40.055Z,75.40
2023-05-15T23:52:11.672Z,75.90
2023-05-15T23:54:42.234Z,75.00
2023-05-15T23:57:13.624Z,75.90
2023-05-15T23:59:45.910Z,75.60
